Terminal Aerodrome Forecast
Issued by NWS Jackson, MS

Home | Current Version | Previous Version | Text Only | Print | Product List | Glossary On
Versions: 1 2 3 4 5 6 7 8 9 10 11 12 13
869
FTUS44 KJAN 292325
TAFGWO
TAF
KGWO 292325Z 3000/3024 25004KT P6SM SCT035 SCT080
     FM300800 19003KT 3SM BR BKN090 BKN250
     FM301400 23003KT P6SM VCSH BKN250
     FM301900 16003KT P6SM VCTS SCT250CB=

USA.gov is the U.S. government's official web portal to all federal, state and local government web resources and services.